M/T Marvel — V7OZ3 — position and weather

sailwx.info

Track history (hours):
 
Tides and Currents Weather Stations Pressure Air Temp Water Temp Dewpoint Dewpoint Depression Visibility Wind Speed Wind Dir Waves Ship Positions

M/T Marvel

Last reported at 2016-May-26 23:33 UTC. Time now 2016-May-27 00:23 UTC.
Position S 00°25' W 047°46'.

Length 183 m; draft 10.5 m.

Type: Tanker. MMSI: 538003191.

Date/timePositionNaut miles runAvg speedWind from/ knotsBaromVisibWave heightAir tempDewpointWater temp
2016-May-26 23:33S 00°25' W 047°46'0 0.4
2016-May-26 22:33S 00°25' W 047°46'2 2.1
2016-May-26 21:33S 00°25' W 047°44'3 2.6
2016-May-26 20:33S 00°24' W 047°41'10 9.5
2016-May-26 19:33S 00°22' W 047°32'  
2016-May-19 16:33S 24°15' W 046°00'1010.3
2016-May-19 15:33S 24°14' W 046°11'9 8.6
2016-May-19 14:33S 24°12' W 046°20'7 6.8
2016-May-19 13:33S 24°05' W 046°22'7 6.8
2016-May-19 12:33S 23°60' W 046°18'3 0.1
2016-May-17 15:13S 23°57' W 046°19'4 5.8
2016-May-17 14:33S 24°00' W 046°20'4 4.4
2016-May-17 13:33S 24°04' W 046°22'4 3.7
2016-May-17 12:33S 24°08' W 046°20'1 0.7
2016-May-17 11:29S 24°08' W 046°19'0 0.0
2016-May-17 10:29S 24°08' W 046°19'0 0.0
2016-May-17 09:32S 24°08' W 046°19'0 0.0
2016-May-17 08:29S 24°08' W 046°19'0 0.0
2016-May-17 07:29S 24°08' W 046°19'0 0.0
2016-May-17 06:29S 24°08' W 046°19'0 0.0
2016-May-17 05:23S 24°08' W 046°19'0 0.0
2016-May-17 04:20S 24°08' W 046°19'0 0.1
2016-May-17 03:26S 24°08' W 046°19'0 0.0
2016-May-17 02:26S 24°08' W 046°19'0 0.0
2016-May-17 01:32S 24°08' W 046°19'0 0.1
2016-May-17 00:23S 24°08' W 046°19'  
Track history (hours):
 
Tides and Currents Weather Stations Pressure Air Temp Water Temp Dewpoint Dewpoint Depression Visibility Wind Speed Wind Dir Waves Ship Positions

M/T Marvel

Last reported at 2016-May-26 23:33 UTC. Time now 2016-May-27 00:23 UTC.
Position S 00°25' W 047°46'.

Length 183 m; draft 10.5 m.

Type: Tanker. MMSI: 538003191.

Date/timePositionNaut miles runAvg speedWind from/ knotsBaromVisibWave heightAir tempDewpointWater temp
2016-May-26 23:33S 00°25' W 047°46'0 0.4
2016-May-26 22:33S 00°25' W 047°46'2 2.1
2016-May-26 21:33S 00°25' W 047°44'3 2.6
2016-May-26 20:33S 00°24' W 047°41'10 9.5
2016-May-26 19:33S 00°22' W 047°32'  
2016-May-19 16:33S 24°15' W 046°00'1010.3
2016-May-19 15:33S 24°14' W 046°11'9 8.6
2016-May-19 14:33S 24°12' W 046°20'7 6.8
2016-May-19 13:33S 24°05' W 046°22'7 6.8
2016-May-19 12:33S 23°60' W 046°18'3 0.1
2016-May-17 15:13S 23°57' W 046°19'4 5.8
2016-May-17 14:33S 24°00' W 046°20'4 4.4
2016-May-17 13:33S 24°04' W 046°22'4 3.7
2016-May-17 12:33S 24°08' W 046°20'1 0.7
2016-May-17 11:29S 24°08' W 046°19'0 0.0
2016-May-17 10:29S 24°08' W 046°19'0 0.0
2016-May-17 09:32S 24°08' W 046°19'0 0.0
2016-May-17 08:29S 24°08' W 046°19'0 0.0
2016-May-17 07:29S 24°08' W 046°19'0 0.0
2016-May-17 06:29S 24°08' W 046°19'0 0.0
2016-May-17 05:23S 24°08' W 046°19'0 0.0
2016-May-17 04:20S 24°08' W 046°19'0 0.1
2016-May-17 03:26S 24°08' W 046°19'0 0.0
2016-May-17 02:26S 24°08' W 046°19'0 0.0
2016-May-17 01:32S 24°08' W 046°19'0 0.1
2016-May-17 00:23S 24°08' W 046°19'  

Dump ship's entire track history